NWS Home NWS Lubbock West Texas Mesonet Latest Conditions as of 0116 PM, Thu May 06, 2021

Latest   N   C   S   Daily Sum   3hrΔ   24hrΔ   Soil Data 
Site Map   24hr Precip   72hr Precip   Google Plot


Station Time of Last Temp Dew Pt. RH Wind Direction Wind Speed Wind Gust Max Wind Max Temp Min Temp Max RH Min RH Altimeter 1HR Rain Today's Rain Solar Rad RFTI
Abernathy 5ENE  01:10 PM 73 45 36% SE1316 28 mph 67° @ 0311 AM 74 50 81 34 30.31" 0 0 1010 0
Adrian 6WSW  01:10 PM 70 44 39% SE1316 34 mph 61° @ 1210 AM 70 48 81 38 30.35" 0 0 1015 0
Aiken 3WSW  01:10 PM 74 45 35% SE1316 30 mph 63° @ 0247 AM 75 50 82 34 30.32" 0 0 710 0
Amarillo 15NNW   01:10 PM 75 40 28% S49 30 mph 64° @ 1216 AM 75 54 74 27 30.31" 0 0 977 0
Amarillo 7SSE  01:10 PM 76 37 24% S1315 28 mph 61° @ 1235 AM 76 46 100 22 30.33" 0 0 977 0
Amarillo 9NNE  01:10 PM 75 40 28% SE1316 30 mph 58° @ 1202 AM 76 52 83 26 30.31" 0 0 1017 0
Amherst 1NE  01:10 PM 71 43 36% SE916 28 mph 77° @ 0437 AM 74 48 82 34 30.32" 0 0 1014 0
Andrews 2E  01:10 PM 77 49 38% SE1012 24 mph 107° @ 1036 AM 77 56 73 37 30.27" 0 0 996 0
Anton 6SSW  01:10 PM 73 44 36% SE1319 29 mph 114° @ 0950 AM 73 50 76 36 30.31" 0 0 992 0
Aspermont 3NE  01:10 PM 79 47 32% SE812 15 mph 89° @ 0105 PM 79 49 94 29 30.26" 0 0 1019 0
Big Bend NP - Castolon  01:10 PM 90 50 25% E36 13 mph 145° @ 1242 PM 91 66 57 24 30.11" 0 0 1026 0
Big Bend NP - Persimmon Gap  01:10 PM 83 50 32% E1420 27 mph 55° @ 1233 PM 84 65 60 31 30.19" 0 0 977 0
Big Lake 1WNW  01:10 PM 79 52 39% E1113 18 mph 158° @ 0106 PM 79 58 70 39 30.25" 0 0 1007 0
Bootleg 11WNW  01:10 PM 69 42 38% SE1214 28 mph 39° @ 0143 AM 70 46 87 36 30.37" 0 0 930 0
Borger 7E  01:10 PM 72 41 32% E911 24 mph 143° @ 0225 AM 72 54 77 30 30.32" 0 0 1039 0
Boys Ranch 1WSW  01:10 PM 73 44 36% W23 30 mph 70° @ 1206 AM 74 54 72 35 30.31" 0 0 1029 0
Brownfield 2S  01:10 PM 72 45 38% E911 27 mph 111° @ 0933 AM 73 53 79 38 30.30" 0 0 1029 0
Canadian 6E  01:10 PM 72 49 45% N68 19 mph 345° @ 1132 AM 72 53 100 42 30.30" 0 0.02 994 0
Caprock Canyons State Park  01:10 PM 77 45 32% SE1012 20 mph 70° @ 0204 AM 77 51 85 30 30.30" 0 0 922 0
Childress 2NNE  01:10 PM 78 42 29% E412 20 mph 34° @ 0210 AM 79 53 87 28 30.28" 0 0 819 0
Clarendon 2WSW  01:10 PM 74 40 30% E513 24 mph 37° @ 1220 AM 74 49 86 27 30.31" 0 0 1019 0
Claude 12SW  01:10 PM 73 36 26% SE912 28 mph 49° @ 1238 AM 73 48 91 22 30.32" 0 0 1037 0
Clyde 2WNW  01:10 PM 77 45 33% E811 20 mph 108° @ 0314 AM 77 51 79 31 30.27" 0 0 984 0
Colorado City 5NW  01:10 PM 78 50 37% E913 22 mph 140° @ 1228 PM 79 55 73 36 30.28" 0 0 969 0
Comanche Springs  01:10 PM 79 46 31% E710 16 mph 81° @ 1258 PM 80 46 94 29 30.26" 0 0 734 0
Coyanosa 2N  01:10 PM 84 49 30% E811 32 mph 318° @ 0759 AM 84 62 64 30 30.20" 0 0 1024 0
Crane 1NNW   01:10 PM 81 54 39% SE810 25 mph 124° @ 1045 AM 81 63 64 39 30.23" 0 0 1004 0
Crowell 1E  01:10 PM 77 51 41% NE36 15 mph 48° @ 0106 AM 78 52 89 36 30.27" 0 0 1008 0
Dell City  01:10 PM 83 42 23% E24 19 mph 168° @ 1233 AM 83 49 70 23 30.24" 0 0 973 0
Denver City 7WNW  01:10 PM 74 48 41% SE1116 24 mph 24° @ 0350 AM 74 53 78 41 30.30" 0 0 1030 0
Dimmitt 2NE  01:10 PM 70 44 40% SE1216 34 mph 71° @ 0250 AM 70 47 90 39 30.33" 0 0 974 0
Doole 3WNW  01:10 PM 78 48 35% E57 18 mph 101° @ 0100 PM 79 52 81 34 30.25" 0 0 1020 0
Dora NM 2SW  01:10 PM 70 43 39% SE1016 23 mph 338° @ 0120 AM 71 47 85 34 30.34" 0 0 974 0
Dozier 3W  01:10 PM 78 41 27% N910 24 mph 54° @ 1216 AM 78 56 81 27 30.30" 0 0 981 0
Earth 9WSW  01:10 PM 72 43 36% SE1113 34 mph 74° @ 0430 AM 73 49 83 34 30.33" 0 0 1029 0
Endee NM 2SW  01:10 PM 72 43 36% SE914 36 mph 32° @ 1206 AM 72 51 72 35 30.34" 0 0 950 0
Estelline 3SSE  01:10 PM 79 44 29% E711 18 mph 55° @ 0244 AM 80 50 89 28 30.28" 0 0 741 0
Floydada 2NNE  01:10 PM 75 46 36% SE1217 24 mph 147° @ 0100 PM 76 50 83 34 30.30" 0 0 981 0
Fluvanna 3WNW  01:10 PM 74 46 38% E1218 22 mph 97° @ 0900 AM 74 54 76 37 30.29" 0 0 962 0
Fort Chadbourne  01:10 PM 77 54 44% SE46 20 mph 88° @ 0836 AM 77 55 76 40 30.27" 0 0 949 0
Fort Lancaster  01:10 PM 82 57 42% SE912 22 mph 153° @ 0101 PM 83 63 65 42 30.22" 0 0 969 0
Fort Lewis CO  01:10 PM 68 14 12% SE12 15 mph 44° @ 0653 AM 70 32 53 10 30.42" 0 0 1042 0
Fort McKavett  01:10 PM 77 53 43% N811 14 mph 88° @ 0840 AM 79 51 86 42 30.26" 0 0 998 0
Friona 2NE  01:10 PM 70 43 38% SE1316 29 mph 80° @ 0130 AM 70 47 83 38 30.35" 0 0 1003 0
Fritch 1WNW  01:10 PM 71 44 38% N79 26 mph 122° @ 0213 AM 72 56 74 37 30.32" 0 0 997 0
Gail 2ESE  01:10 PM 75 47 37% SE1013 23 mph 105° @ 1112 AM 75 55 77 37 30.28" 0 0 1002 0
Goodlett 3W  01:10 PM 78 47 33% E611 17 mph 54° @ 1250 AM 79 51 92 33 30.26" 0 0 838 0
Goodnight  01:10 PM 74 39 28% SE912 25 mph 48° @ 1213 AM 75 48 88 25 30.33" 0 0 970 0
Graham 5SSW  01:10 PM 73 44 35% SE1115 32 mph 45° @ 0347 AM 74 53 74 34 30.29" 0 0 1028 0
Guadalupe Mtns Natl Park  01:10 PM 72 40 31% E1518 20 mph 84° @ 0109 PM 73 61 40 20 30.35" 0 0 1067 0
Guthrie 10WSW  01:10 PM 80 44 28% S611 20 mph 149° @ 0103 PM 80 50 84 28 30.26" 0 0 1013 0
Hackberry 2SSE  01:10 PM 82 43 25% SE1214 24 mph 171° @ 1222 PM 83 49 89 25 30.26" 0 0 745 0
Happy 1E  01:10 PM 73 43 34% SE46 28 mph 70° @ 0151 AM 74 47 89 32 30.32" 0 0 1034 0
Hart 3N  01:10 PM 72 44 37% SE1118 33 mph 65° @ 0320 AM 72 47 91 37 30.33" 0 0 994 0
Haskell 1NW  01:10 PM 79 49 36% SE711 15 mph 136° @ 1005 AM 79 51 88 35 30.25" 0 0 948 0
Hefner 1SW  01:10 PM 80 50 34% SE68 17 mph 73° @ 0147 AM 80 52 91 31 30.26" 0 0 974 0
Hereford 2NW  01:10 PM 72 43 36% SE1320 26 mph 59° @ 0235 AM 73 50 83 36 30.33" 0 0 986 0
Hobbs NM 5NW  01:10 PM 73 45 36% SE812 27 mph 36° @ 0435 AM 74 53 74 34 30.32" 0 0 1002 0
Jayton 1SSE  01:10 PM 78 48 36% E1016 18 mph 59° @ 0320 AM 78 52 83 35 30.27" 0 0 997 0
Junction 1SSW  01:10 PM 78 57 49% NE1011 14 mph 7° @ 0105 PM 78 45 100 47 30.24" 0 0 894 0
Kent 9E  01:10 PM 76 46 35% NE910 20 mph 19° @ 1245 PM 78 56 45 28 30.29" 0 0 1018 0
Knox City 3NW  01:10 PM 80 48 33% S57 19 mph 175° @ 1028 AM 80 51 93 31 30.25" 0 0 1029 0
Lake Alan Henry 1NW  01:10 PM 76 47 36% SE1113 19 mph 64° @ 0349 AM 77 53 75 34 30.28" 0 0 975 0
Lake McClellan 2NW  01:10 PM 73 42 33% E69 25 mph 53° @ 1202 AM 73 53 84 28 30.33" 0 0 960 0
Lamesa 2SE  01:10 PM 75 47 38% SE1319 25 mph 96° @ 0955 AM 75 54 78 38 30.29" 0 0 999 0
Lesley 2S  01:10 PM 79 46 31% E69 27 mph 50° @ 0214 AM 79 50 89 29 30.28" 0 0 994 0
Levelland 4S  01:10 PM 73 46 38% SE1421 32 mph 124° @ 0957 AM 74 52 71 37 30.30" 0 0 991 0
Lomax 1SSE  01:10 PM 76 50 40% SE1217 23 mph 104° @ 1215 PM 77 56 77 38 30.27" 0 0 1013 0
Lubbock 3WNW TTU  01:10 PM 75 45 35% SE1220 26 mph 119° @ 0955 AM 75 52 71 35 30.31" 0 0 995 0
McAdoo 3NNW  01:10 PM 77 46 34% S1316 23 mph 150° @ 1144 AM 77 48 87 34 30.31" 0 0 1007 0
McCamey 1SSW  01:10 PM 81 56 42% SE1317 24 mph 145° @ 0107 PM 82 64 60 41 30.22" 0 0 989 0
McLean 1E  01:10 PM 73 43 35% SE58 22 mph 63° @ 0115 AM 73 54 81 35 30.30" 0 0 1011 0
Memphis 1NE  01:10 PM 77 44 31% SE48 20 mph 32° @ 0204 AM 77 50 91 30 30.29" 0 0 960 0
Menard 2NW   01:10 PM 76 53 44% E47 14 mph 93° @ 1156 AM 77 50 88 43 30.26" 0 0 935 0
Mertzon 3NNE  01:10 PM 79 53 40% E911 19 mph 182° @ 0254 AM 79 52 87 40 30.26" 0 0 954 0
Morton 1ENE  01:10 PM 73 46 39% S1119 25 mph 72° @ 0425 AM 73 49 79 39 30.31" 0 0 991 0
Muleshoe 2SSW  01:10 PM 71 42 35% SE1116 28 mph 88° @ 0335 AM 71 48 89 35 30.33" 0 0 1068 0
New Home  01:10 PM 75 46 35% SE1017 28 mph 124° @ 1115 AM 75 52 70 35 30.32" 0 0 986 0
Northfield 1S  01:10 PM 81 39 23% SE815 19 mph 52° @ 0205 AM 81 48 93 23 30.27" 0 0 1131 0
O'Donnell 1N  01:10 PM 73 47 39% SE1214 28 mph 101° @ 1040 AM 74 53 78 37 30.30" 0 0 1029 0
Odell 4ENE  01:10 PM 78 46 32% N67 17 mph 79° @ 1234 AM 79 55 91 32 30.28" 0 0.01 1019 0
Olton 6S  01:10 PM 73 44 36% SE1621 25 mph 75° @ 0420 AM 73 49 84 36 30.31" 0 0 991 0
Paducah 10SW  01:10 PM 81 43 26% S1318 24 mph 192° @ 0935 AM 81 51 84 26 30.28" 0 0 1026 0
Palo Duro 4E (JA Ranch)  01:10 PM 77 37 24% SE710 22 mph 36° @ 1250 AM 78 46 92 22 30.30" 0 0 969 0
Palo Duro Canyon SP Floor  01:10 PM 80 42 26% SE1216 26 mph 120° @ 0121 AM 80 51 81 24 30.29" 0 0 954 0
Palo Duro Canyon State Park Rim  01:10 PM 77 40 27% SE813 26 mph 63° @ 0109 AM 77 51 76 24 30.33" 0 0 1020 0
Palo Duro Reservoir 1NW   01:10 PM 70 47 44% NE58 14 mph 353° @ 1030 AM 70 51 94 43 30.33" 0 0.05 964 0
Pampa 2E  01:10 PM 69 43 39% N35 23 mph 97° @ 0130 AM 69 53 89 39 30.33" 0 0 973 0
Panhandle 1SSW  01:10 PM 72 37 28% E810 24 mph 52° @ 1205 AM 72 50 95 28 30.33" 0 0 1000 0
Plains 3N  01:10 PM 73 48 42% SE1420 26 mph 24° @ 0320 AM 74 52 77 37 30.31" 0 0 1013 0
Plainview 1S  01:10 PM 74 44 33% SE1215 28 mph 67° @ 0325 AM 75 50 81 33 30.31" 0 0 1052 0
Post 1NE  01:10 PM 76 45 33% E1114 24 mph 111° @ 1150 AM 77 52 76 32 30.29" 0 0 1020 0
Ralls 1SE  01:10 PM 75 43 32% SE1316 27 mph 60° @ 0318 AM 76 52 73 30 30.31" 0 0 1018 0
Reese Center  01:10 PM 74 45 35% SE1522 35 mph 126° @ 1017 AM 74 52 69 35 30.31" 0 0 1026 0
Roaring Springs 3N  01:10 PM 79 45 30% SE1520 22 mph 129° @ 1257 PM 79 49 83 30 30.29" 0 0 1043 0
Romero 11SSW  01:10 PM 70 44 40% S914 30 mph 39° @ 1203 AM 71 51 81 38 30.34" 0 0 958 0
Rotan 5W  01:10 PM 77 48 35% E1012 19 mph 63° @ 0421 AM 77 51 87 35 30.28" 0 0 1185 0
San Angelo 7NW  01:10 PM 78 47 36% E914 21 mph 81° @ 1240 PM 78 56 73 36 30.27" 0 0 955 0
Seagraves 1SW  01:10 PM 74 47 38% E1119 28 mph 18° @ 0356 AM 75 53 75 37 30.29" 0 0 1017 0
Segovia 7SSW  01:10 PM 78 54 42% E69 15 mph 120° @ 0938 AM 78 53 79 42 30.26" 0 0 1033 0
Seminole 2NNE  01:10 PM 75 48 39% SE1420 28 mph 20° @ 0425 AM 75 53 79 39 30.29" 0 0 1006 0
Seymour 3NW  01:10 PM 78 49 37% NE69 18 mph 54° @ 0130 AM 79 51 95 35 30.26" 0 0 892 0
Sierra Blanca 1SSE  01:10 PM 83 42 24% SE1215 22 mph 98° @ 1159 AM 83 60 44 16 30.26" 0 0 910 0
Silverton 7ESE  01:10 PM 75 43 32% SE1116 28 mph 59° @ 0210 AM 76 50 85 31 30.31" 0 0 915 0
Slaton 2NE  01:10 PM 74 44 34% SE1216 28 mph 107° @ 1116 AM 75 53 69 32 30.31" 0 0 1033 0
Smyer  01:10 PM 75 46 36% SE1318 29 mph 103° @ 1014 AM 76 51 70 34 30.31" 0 0 1061 0
Snyder 3E  01:10 PM 78 47 34% SE1116 25 mph 67° @ 0530 AM 79 53 74 33 30.28" 0 0 931 0
Snyder 3SSW  01:10 PM 76 49 38% SE1113 22 mph 114° @ 1219 PM 76 54 77 37 30.29" 0 0 981 0
South Plains 3ENE  01:10 PM 78 46 32% SE1619 23 mph 50° @ 0223 AM 78 50 87 30 30.31" 0 0 1019 0
Spur 1W  01:10 PM 78 46 33% SE1014 19 mph 62° @ 0310 AM 78 53 76 33 30.27" 0 0 998 0
St. Lawrence 5SW  01:10 PM 77 51 39% SE1521 27 mph 144° @ 0102 PM 78 56 78 39 30.26" 0 0 1056 0
Stamford 5ESE  01:10 PM 80 46 31% E1014 16 mph 85° @ 1245 PM 80 50 92 30 30.26" 0 0 989 0
Sterling City 4WSW  01:10 PM 77 47 35% E1015 22 mph 97° @ 1039 AM 77 50 93 35 30.27" 0 0 843 0
Stinnett 1NNW  01:10 PM 70 39 32% SE68 17 mph 71° @ 1202 AM 72 52 83 27 30.33" 0 0 990 0
Stratford 4WNW  01:10 PM 72 41 33% S1012 20 mph 213° @ 1156 AM 72 43 92 31 30.34" 0 0 1002 0
Sundown 8WSW  01:10 PM 74 46 37% SE1118 28 mph 108° @ 0910 AM 74 51 75 37 30.31" 0 0 913 0
Sweetwater 11SW   01:10 PM 76 48 37% E1011 28 mph 147° @ 1246 AM 76 51 79 36 30.29" 0 0 1067 0
Tahoka 3NNE  01:10 PM 74 45 36% E913 24 mph 97° @ 1112 AM 75 51 75 35 30.30" 0 0 1004 0
Tarzan 2WNW  01:10 PM 77 50 39% E1216 25 mph 125° @ 0106 PM 77 55 72 38 30.28" 0 0 1012 0
Tatum NM 2SW  01:10 PM 75 47 39% SE814 23 mph 75° @ 0530 AM 75 51 79 38 30.32" 0 0 975 0
Throckmorton 1SW  01:10 PM 79 50 36% E57 13 mph 56° @ 0201 AM 79 50 94 33 30.25" 0 0 1006 0
Truscott 2SE  01:10 PM 79 47 32% E68 18 mph 72° @ 0208 AM 79 50 91 30 30.26" 0 0 990 0
Tulia 2ENE  01:10 PM 75 46 37% SE1219 28 mph 140° @ 1210 PM 75 48 85 37 30.31" 0 0 900 0
Turkey 2WSW  01:10 PM 78 45 32% SE212 24 mph 49° @ 0200 AM 78 51 89 32 30.28" 0 0 937 0
Umbarger 3NNE  01:10 PM 74 43 33% SE1215 28 mph 73° @ 0139 AM 75 47 84 31 30.33" 0 0 978 0
Van Horn 3ENE  01:10 PM 81 44 27% N1519 27 mph 14° @ 0107 PM 81 59 56 21 30.25" 0 0 1019 0
Vega 4E  01:10 PM 73 42 33% SE1215 38 mph 58° @ 1214 AM 73 48 84 33 30.34" 0 0 1046 0
Vigo Park  01:10 PM 76 40 27% E1315 25 mph 60° @ 0205 AM 76 47 88 26 30.32" 0 0 944 0
Wall 2E  01:10 PM 77 51 39% E911 16 mph 87° @ 1218 PM 78 53 78 37 30.27" 0 0 1000 0
Weinert 2NNE  01:10 PM 79 46 31% E68 17 mph 88° @ 0219 AM 79 53 78 31 30.25" 0 0 923 0
Welch  01:10 PM 74 48 40% SE1217 27 mph 113° @ 0948 AM 74 53 79 39 30.30" 0 0 995 0
Wellington 6SE  01:10 PM 76 43 31% NW35 25 mph 30° @ 0134 AM 76 56 78 30 30.28" 0 0 1034 0
White River Lake 6NW  01:10 PM 77 44 31% SE1721 26 mph 48° @ 0330 AM 77 53 72 30 30.28" 0 0 1045 0
Wolfforth 6SSW  01:10 PM 74 46 37% SE1320 32 mph 124° @ 1035 AM 75 52 69 36 30.31" 0 0 1001 0

West Texas Mesonet Home   Site Map/Menu  NWS Lubbock Soil Data  Daily Summary Page  24hr Precip  72hr Precip  Google Plot